Rio Casca, Brazil
Current Conditions -  °F | °C
As of 7:00 PM on Tuesday 27 Jan 2015 (Local Time) from SBIP Reporting Station
Broken Clouds Broken Clouds  
Wind Chill: 90°   Ceiling: 6000
Heat Index: 90°   Visibility: 6mi
Dew Point: 61°   Wind: 3mph
Humidity: 38%   Direction: 270°W
Pressure: 29.94"   Gusts: NA
Location:  20.23°S, 42.65°W
Report Text: SBIP 272100Z 27003KT 9999 SCT030 BKN060 32/16 Q1014
Loading
Personal Weather Stations






























Interactive Weather Map New forecast layout! Learn more

10-Day Weather Forecast

Advertisements
Track Severe Weather on mobile